sensor_id;sensor_type;location;lat;lon;timestamp;P1;durP1;ratioP1;P2;durP2;ratioP2
3875;SDS011;1953;51.222;6.624;2023-05-23T00:00:53;18.17;;;14.27;;
3875;SDS011;1953;51.222;6.624;2023-05-23T00:05:38;19.50;;;14.70;;
3875;SDS011;1953;51.222;6.624;2023-05-23T00:12:06;17.53;;;13.83;;
3875;SDS011;1953;51.222;6.624;2023-05-23T00:16:49;18.10;;;13.43;;
3875;SDS011;1953;51.222;6.624;2023-05-23T00:21:31;19.63;;;13.07;;
3875;SDS011;1953;51.222;6.624;2023-05-23T00:26:14;23.20;;;12.30;;
3875;SDS011;1953;51.222;6.624;2023-05-23T00:30:58;14.10;;;10.40;;
3875;SDS011;1953;51.222;6.624;2023-05-23T00:35:40;15.67;;;9.57;;
3875;SDS011;1953;51.222;6.624;2023-05-23T00:40:23;10.60;;;8.77;;
3875;SDS011;1953;51.222;6.624;2023-05-23T00:45:06;9.20;;;8.23;;
3875;SDS011;1953;51.222;6.624;2023-05-23T00:49:50;10.40;;;7.40;;
3875;SDS011;1953;51.222;6.624;2023-05-23T00:54:33;8.50;;;7.60;;
3875;SDS011;1953;51.222;6.624;2023-05-23T00:59:17;8.43;;;6.70;;
3875;SDS011;1953;51.222;6.624;2023-05-23T01:04:01;7.53;;;6.57;;
3875;SDS011;1953;51.222;6.624;2023-05-23T01:08:45;8.23;;;6.97;;
3875;SDS011;1953;51.222;6.624;2023-05-23T01:13:28;9.10;;;7.10;;
3875;SDS011;1953;51.222;6.624;2023-05-23T01:18:20;8.90;;;6.80;;
3875;SDS011;1953;51.222;6.624;2023-05-23T01:28:40;7.53;;;6.70;;
3875;SDS011;1953;51.222;6.624;2023-05-23T01:33:26;7.97;;;7.17;;
3875;SDS011;1953;51.222;6.624;2023-05-23T01:38:10;11.63;;;7.77;;
3875;SDS011;1953;51.222;6.624;2023-05-23T01:42:53;9.50;;;7.70;;
3875;SDS011;1953;51.222;6.624;2023-05-23T01:47:39;12.03;;;7.60;;
3875;SDS011;1953;51.222;6.624;2023-05-23T01:52:22;9.43;;;7.67;;
3875;SDS011;1953;51.222;6.624;2023-05-23T01:57:05;11.17;;;8.20;;
3875;SDS011;1953;51.222;6.624;2023-05-23T02:01:48;9.00;;;7.63;;
3875;SDS011;1953;51.222;6.624;2023-05-23T02:06:32;12.57;;;9.50;;
3875;SDS011;1953;51.222;6.624;2023-05-23T02:11:14;11.73;;;8.50;;
3875;SDS011;1953;51.222;6.624;2023-05-23T02:15:57;14.37;;;11.03;;
3875;SDS011;1953;51.222;6.624;2023-05-23T02:20:40;15.50;;;10.00;;
3875;SDS011;1953;51.222;6.624;2023-05-23T02:25:24;14.90;;;10.40;;
3875;SDS011;1953;51.222;6.624;2023-05-23T02:30:07;16.33;;;10.37;;
3875;SDS011;1953;51.222;6.624;2023-05-23T02:34:50;15.47;;;11.37;;
3875;SDS011;1953;51.222;6.624;2023-05-23T02:39:33;21.43;;;11.70;;
3875;SDS011;1953;51.222;6.624;2023-05-23T02:44:17;15.27;;;11.87;;
3875;SDS011;1953;51.222;6.624;2023-05-23T02:49:00;17.13;;;12.47;;
3875;SDS011;1953;51.222;6.624;2023-05-23T02:53:17;15.80;;;12.43;;
3875;SDS011;1953;51.222;6.624;2023-05-23T02:58:00;18.53;;;11.60;;
3875;SDS011;1953;51.222;6.624;2023-05-23T03:02:46;15.77;;;11.73;;
3875;SDS011;1953;51.222;6.624;2023-05-23T03:07:29;18.10;;;11.73;;
3875;SDS011;1953;51.222;6.624;2023-05-23T03:12:13;18.07;;;11.17;;
3875;SDS011;1953;51.222;6.624;2023-05-23T03:16:56;16.70;;;11.13;;
3875;SDS011;1953;51.222;6.624;2023-05-23T03:21:39;14.43;;;10.67;;
3875;SDS011;1953;51.222;6.624;2023-05-23T03:26:22;14.97;;;10.47;;
3875;SDS011;1953;51.222;6.624;2023-05-23T03:31:05;14.97;;;9.83;;
3875;SDS011;1953;51.222;6.624;2023-05-23T03:35:47;13.33;;;9.77;;
3875;SDS011;1953;51.222;6.624;2023-05-23T03:40:31;16.43;;;10.27;;
3875;SDS011;1953;51.222;6.624;2023-05-23T03:45:14;15.40;;;9.97;;
3875;SDS011;1953;51.222;6.624;2023-05-23T03:49:57;14.97;;;10.60;;
3875;SDS011;1953;51.222;6.624;2023-05-23T03:54:40;20.30;;;11.53;;
3875;SDS011;1953;51.222;6.624;2023-05-23T03:59:24;15.60;;;10.80;;
3875;SDS011;1953;51.222;6.624;2023-05-23T04:04:06;17.00;;;10.90;;
3875;SDS011;1953;51.222;6.624;2023-05-23T04:08:49;15.10;;;10.60;;
3875;SDS011;1953;51.222;6.624;2023-05-23T04:13:31;20.47;;;11.53;;
3875;SDS011;1953;51.222;6.624;2023-05-23T04:18:15;16.80;;;9.83;;
3875;SDS011;1953;51.222;6.624;2023-05-23T04:22:58;14.60;;;10.83;;
3875;SDS011;1953;51.222;6.624;2023-05-23T04:27:40;15.90;;;10.80;;
3875;SDS011;1953;51.222;6.624;2023-05-23T04:32:23;17.43;;;10.60;;
3875;SDS011;1953;51.222;6.624;2023-05-23T04:37:07;16.47;;;11.03;;
3875;SDS011;1953;51.222;6.624;2023-05-23T04:41:50;15.97;;;10.80;;
3875;SDS011;1953;51.222;6.624;2023-05-23T04:46:34;13.13;;;10.40;;
3875;SDS011;1953;51.222;6.624;2023-05-23T04:51:16;14.93;;;11.00;;
3875;SDS011;1953;51.222;6.624;2023-05-23T04:56:02;17.23;;;11.10;;
3875;SDS011;1953;51.222;6.624;2023-05-23T05:00:45;16.77;;;11.20;;
3875;SDS011;1953;51.222;6.624;2023-05-23T05:05:27;15.90;;;10.57;;
3875;SDS011;1953;51.222;6.624;2023-05-23T05:10:10;15.77;;;11.27;;
3875;SDS011;1953;51.222;6.624;2023-05-23T05:14:57;16.93;;;11.20;;
3875;SDS011;1953;51.222;6.624;2023-05-23T05:19:40;17.73;;;12.20;;
3875;SDS011;1953;51.222;6.624;2023-05-23T05:24:23;16.50;;;11.63;;
3875;SDS011;1953;51.222;6.624;2023-05-23T05:29:05;22.80;;;13.03;;
3875;SDS011;1953;51.222;6.624;2023-05-23T05:33:49;21.63;;;12.80;;
3875;SDS011;1953;51.222;6.624;2023-05-23T05:38:32;17.60;;;12.80;;
3875;SDS011;1953;51.222;6.624;2023-05-23T05:43:14;20.27;;;12.97;;
3875;SDS011;1953;51.222;6.624;2023-05-23T05:47:57;17.53;;;12.80;;
3875;SDS011;1953;51.222;6.624;2023-05-23T05:52:41;19.63;;;12.70;;
3875;SDS011;1953;51.222;6.624;2023-05-23T05:57:23;19.60;;;13.53;;
3875;SDS011;1953;51.222;6.624;2023-05-23T06:02:06;22.63;;;12.60;;
3875;SDS011;1953;51.222;6.624;2023-05-23T06:06:48;20.87;;;11.90;;
3875;SDS011;1953;51.222;6.624;2023-05-23T06:11:32;17.97;;;12.43;;
3875;SDS011;1953;51.222;6.624;2023-05-23T06:16:18;15.60;;;12.30;;
3875;SDS011;1953;51.222;6.624;2023-05-23T06:21:01;19.03;;;12.97;;
3875;SDS011;1953;51.222;6.624;2023-05-23T06:25:44;16.97;;;12.37;;
3875;SDS011;1953;51.222;6.624;2023-05-23T06:30:28;19.00;;;11.93;;
3875;SDS011;1953;51.222;6.624;2023-05-23T06:35:10;20.27;;;11.40;;
3875;SDS011;1953;51.222;6.624;2023-05-23T06:39:53;16.93;;;10.67;;
3875;SDS011;1953;51.222;6.624;2023-05-23T06:44:35;13.20;;;10.10;;
3875;SDS011;1953;51.222;6.624;2023-05-23T06:49:19;14.37;;;10.33;;
3875;SDS011;1953;51.222;6.624;2023-05-23T06:54:01;14.40;;;10.47;;
3875;SDS011;1953;51.222;6.624;2023-05-23T06:58:44;12.70;;;9.77;;
3875;SDS011;1953;51.222;6.624;2023-05-23T07:03:27;12.70;;;10.23;;
3875;SDS011;1953;51.222;6.624;2023-05-23T07:08:11;12.33;;;9.27;;
3875;SDS011;1953;51.222;6.624;2023-05-23T07:12:53;16.87;;;10.30;;
3875;SDS011;1953;51.222;6.624;2023-05-23T07:17:36;19.57;;;10.73;;
3875;SDS011;1953;51.222;6.624;2023-05-23T07:22:18;19.03;;;11.10;;
3875;SDS011;1953;51.222;6.624;2023-05-23T07:27:02;13.20;;;10.63;;
3875;SDS011;1953;51.222;6.624;2023-05-23T07:31:46;20.80;;;9.87;;
3875;SDS011;1953;51.222;6.624;2023-05-23T07:36:28;23.67;;;11.27;;
3875;SDS011;1953;51.222;6.624;2023-05-23T07:41:13;18.87;;;10.70;;
3875;SDS011;1953;51.222;6.624;2023-05-23T07:45:57;18.90;;;11.23;;
3875;SDS011;1953;51.222;6.624;2023-05-23T07:50:40;19.33;;;11.10;;
3875;SDS011;1953;51.222;6.624;2023-05-23T07:55:23;16.87;;;9.90;;
3875;SDS011;1953;51.222;6.624;2023-05-23T08:00:06;16.73;;;10.10;;
3875;SDS011;1953;51.222;6.624;2023-05-23T08:04:51;21.27;;;10.10;;
3875;SDS011;1953;51.222;6.624;2023-05-23T08:09:34;17.63;;;10.77;;
3875;SDS011;1953;51.222;6.624;2023-05-23T08:14:16;18.40;;;10.30;;
3875;SDS011;1953;51.222;6.624;2023-05-23T08:18:59;22.13;;;10.97;;
3875;SDS011;1953;51.222;6.624;2023-05-23T08:23:43;22.60;;;11.73;;
3875;SDS011;1953;51.222;6.624;2023-05-23T08:28:25;24.00;;;12.30;;
3875;SDS011;1953;51.222;6.624;2023-05-23T08:33:08;28.60;;;11.70;;
3875;SDS011;1953;51.222;6.624;2023-05-23T08:37:50;22.67;;;12.20;;
3875;SDS011;1953;51.222;6.624;2023-05-23T08:42:34;21.80;;;11.90;;
3875;SDS011;1953;51.222;6.624;2023-05-23T08:47:17;25.53;;;12.77;;
3875;SDS011;1953;51.222;6.624;2023-05-23T08:52:01;26.03;;;13.40;;
3875;SDS011;1953;51.222;6.624;2023-05-23T08:56:44;22.20;;;13.33;;
3875;SDS011;1953;51.222;6.624;2023-05-23T09:01:29;20.73;;;13.13;;
3875;SDS011;1953;51.222;6.624;2023-05-23T09:06:13;21.53;;;12.43;;
3875;SDS011;1953;51.222;6.624;2023-05-23T09:10:58;21.23;;;11.90;;
3875;SDS011;1953;51.222;6.624;2023-05-23T09:15:54;26.50;;;11.57;;
3875;SDS011;1953;51.222;6.624;2023-05-23T09:20:41;18.10;;;10.60;;
3875;SDS011;1953;51.222;6.624;2023-05-23T09:25:26;19.10;;;9.80;;
3875;SDS011;1953;51.222;6.624;2023-05-23T09:30:09;19.80;;;10.40;;
3875;SDS011;1953;51.222;6.624;2023-05-23T09:34:56;16.33;;;8.97;;
3875;SDS011;1953;51.222;6.624;2023-05-23T09:39:41;14.03;;;8.77;;
3875;SDS011;1953;51.222;6.624;2023-05-23T09:44:27;18.30;;;9.40;;
3875;SDS011;1953;51.222;6.624;2023-05-23T09:49:13;17.10;;;8.83;;
3875;SDS011;1953;51.222;6.624;2023-05-23T09:53:57;22.00;;;9.40;;
3875;SDS011;1953;51.222;6.624;2023-05-23T09:58:41;20.40;;;8.67;;
3875;SDS011;1953;51.222;6.624;2023-05-23T10:03:28;19.27;;;8.97;;
3875;SDS011;1953;51.222;6.624;2023-05-23T10:08:18;14.37;;;8.23;;
3875;SDS011;1953;51.222;6.624;2023-05-23T10:13:02;15.30;;;8.53;;
3875;SDS011;1953;51.222;6.624;2023-05-23T10:17:59;17.77;;;9.43;;
3875;SDS011;1953;51.222;6.624;2023-05-23T10:22:46;11.90;;;8.40;;
3875;SDS011;1953;51.222;6.624;2023-05-23T10:27:30;12.87;;;7.70;;
3875;SDS011;1953;51.222;6.624;2023-05-23T10:32:13;15.93;;;8.60;;
3875;SDS011;1953;51.222;6.624;2023-05-23T10:37:00;14.60;;;7.97;;
3875;SDS011;1953;51.222;6.624;2023-05-23T10:41:47;10.57;;;7.13;;
3875;SDS011;1953;51.222;6.624;2023-05-23T10:46:49;18.07;;;7.80;;
3875;SDS011;1953;51.222;6.624;2023-05-23T10:51:37;10.33;;;7.20;;
3875;SDS011;1953;51.222;6.624;2023-05-23T10:56:21;16.10;;;7.57;;
3875;SDS011;1953;51.222;6.624;2023-05-23T11:01:06;11.13;;;6.50;;
3875;SDS011;1953;51.222;6.624;2023-05-23T11:05:51;8.03;;;6.03;;
3875;SDS011;1953;51.222;6.624;2023-05-23T11:15:41;8.97;;;6.00;;
3875;SDS011;1953;51.222;6.624;2023-05-23T11:20:25;7.03;;;5.57;;
3875;SDS011;1953;51.222;6.624;2023-05-23T11:25:08;6.47;;;4.77;;
3875;SDS011;1953;51.222;6.624;2023-05-23T11:29:59;11.00;;;5.43;;
3875;SDS011;1953;51.222;6.624;2023-05-23T11:34:45;9.57;;;6.13;;
3875;SDS011;1953;51.222;6.624;2023-05-23T11:39:28;12.47;;;5.60;;
3875;SDS011;1953;51.222;6.624;2023-05-23T11:44:10;10.17;;;5.40;;
3875;SDS011;1953;51.222;6.624;2023-05-23T11:48:53;9.37;;;5.10;;
3875;SDS011;1953;51.222;6.624;2023-05-23T11:53:37;9.03;;;5.80;;
3875;SDS011;1953;51.222;6.624;2023-05-23T11:58:20;12.53;;;5.50;;
3875;SDS011;1953;51.222;6.624;2023-05-23T12:03:05;9.97;;;5.50;;
3875;SDS011;1953;51.222;6.624;2023-05-23T12:07:49;10.70;;;5.00;;
3875;SDS011;1953;51.222;6.624;2023-05-23T12:13:07;10.13;;;5.23;;
3875;SDS011;1953;51.222;6.624;2023-05-23T12:17:52;12.43;;;5.17;;
3875;SDS011;1953;51.222;6.624;2023-05-23T12:22:34;18.93;;;6.10;;
3875;SDS011;1953;51.222;6.624;2023-05-23T12:27:17;9.03;;;4.90;;
3875;SDS011;1953;51.222;6.624;2023-05-23T12:32:02;12.57;;;5.17;;
3875;SDS011;1953;51.222;6.624;2023-05-23T12:36:46;13.97;;;5.50;;
3875;SDS011;1953;51.222;6.624;2023-05-23T12:41:30;8.13;;;4.20;;
3875;SDS011;1953;51.222;6.624;2023-05-23T12:46:14;11.97;;;5.23;;
3875;SDS011;1953;51.222;6.624;2023-05-23T12:50:58;10.97;;;4.70;;
3875;SDS011;1953;51.222;6.624;2023-05-23T12:55:42;9.50;;;4.57;;
3875;SDS011;1953;51.222;6.624;2023-05-23T13:00:25;11.53;;;4.77;;
3875;SDS011;1953;51.222;6.624;2023-05-23T13:05:07;13.50;;;4.87;;
3875;SDS011;1953;51.222;6.624;2023-05-23T13:09:52;9.03;;;4.63;;
3875;SDS011;1953;51.222;6.624;2023-05-23T13:14:34;10.13;;;4.73;;
3875;SDS011;1953;51.222;6.624;2023-05-23T13:19:17;9.57;;;4.23;;
3875;SDS011;1953;51.222;6.624;2023-05-23T13:23:59;11.30;;;4.83;;
3875;SDS011;1953;51.222;6.624;2023-05-23T13:28:43;14.43;;;4.97;;
3875;SDS011;1953;51.222;6.624;2023-05-23T13:33:26;8.40;;;4.73;;
3875;SDS011;1953;51.222;6.624;2023-05-23T13:38:08;11.27;;;4.77;;
3875;SDS011;1953;51.222;6.624;2023-05-23T13:42:51;14.50;;;5.03;;
3875;SDS011;1953;51.222;6.624;2023-05-23T13:47:35;12.30;;;5.03;;
3875;SDS011;1953;51.222;6.624;2023-05-23T13:52:17;13.03;;;5.33;;
3875;SDS011;1953;51.222;6.624;2023-05-23T13:57:00;14.77;;;5.60;;
3875;SDS011;1953;51.222;6.624;2023-05-23T14:01:43;13.53;;;4.90;;
3875;SDS011;1953;51.222;6.624;2023-05-23T14:06:27;9.33;;;4.73;;
3875;SDS011;1953;51.222;6.624;2023-05-23T14:11:11;12.40;;;4.83;;
3875;SDS011;1953;51.222;6.624;2023-05-23T14:15:54;11.80;;;4.57;;
3875;SDS011;1953;51.222;6.624;2023-05-23T14:20:36;9.97;;;4.60;;
3875;SDS011;1953;51.222;6.624;2023-05-23T14:25:20;9.90;;;4.07;;
3875;SDS011;1953;51.222;6.624;2023-05-23T14:30:03;8.70;;;4.20;;
3875;SDS011;1953;51.222;6.624;2023-05-23T14:34:47;9.43;;;3.60;;
3875;SDS011;1953;51.222;6.624;2023-05-23T14:39:29;9.80;;;4.30;;
3875;SDS011;1953;51.222;6.624;2023-05-23T14:44:13;9.13;;;4.30;;
3875;SDS011;1953;51.222;6.624;2023-05-23T14:48:56;8.13;;;4.50;;
3875;SDS011;1953;51.222;6.624;2023-05-23T14:53:39;11.27;;;3.80;;
3875;SDS011;1953;51.222;6.624;2023-05-23T14:58:21;11.60;;;4.10;;
3875;SDS011;1953;51.222;6.624;2023-05-23T15:03:06;16.43;;;3.63;;
3875;SDS011;1953;51.222;6.624;2023-05-23T15:07:50;7.30;;;3.90;;
3875;SDS011;1953;51.222;6.624;2023-05-23T15:12:32;7.50;;;3.90;;
3875;SDS011;1953;51.222;6.624;2023-05-23T15:17:15;8.60;;;3.90;;
3875;SDS011;1953;51.222;6.624;2023-05-23T15:22:02;7.80;;;3.90;;
3875;SDS011;1953;51.222;6.624;2023-05-23T15:26:45;10.10;;;3.90;;
3875;SDS011;1953;51.222;6.624;2023-05-23T15:31:28;13.73;;;4.43;;
3875;SDS011;1953;51.222;6.624;2023-05-23T15:36:11;8.37;;;3.47;;
3875;SDS011;1953;51.222;6.624;2023-05-23T15:40:55;6.80;;;3.50;;
3875;SDS011;1953;51.222;6.624;2023-05-23T15:45:39;8.50;;;3.90;;
3875;SDS011;1953;51.222;6.624;2023-05-23T15:50:21;9.83;;;4.30;;
3875;SDS011;1953;51.222;6.624;2023-05-23T15:55:04;8.10;;;3.67;;
3875;SDS011;1953;51.222;6.624;2023-05-23T15:59:49;7.13;;;3.60;;
3875;SDS011;1953;51.222;6.624;2023-05-23T16:04:31;10.50;;;3.77;;
3875;SDS011;1953;51.222;6.624;2023-05-23T16:09:15;7.23;;;3.90;;
3875;SDS011;1953;51.222;6.624;2023-05-23T16:13:58;6.83;;;3.23;;
3875;SDS011;1953;51.222;6.624;2023-05-23T16:18:42;5.73;;;3.33;;
3875;SDS011;1953;51.222;6.624;2023-05-23T16:23:24;7.47;;;3.20;;
3875;SDS011;1953;51.222;6.624;2023-05-23T16:28:07;11.57;;;3.87;;
3875;SDS011;1953;51.222;6.624;2023-05-23T16:32:49;8.67;;;3.60;;
3875;SDS011;1953;51.222;6.624;2023-05-23T16:37:33;8.80;;;3.80;;
3875;SDS011;1953;51.222;6.624;2023-05-23T16:42:16;9.50;;;3.60;;
3875;SDS011;1953;51.222;6.624;2023-05-23T16:46:58;8.67;;;3.80;;
3875;SDS011;1953;51.222;6.624;2023-05-23T16:51:41;8.90;;;3.83;;
3875;SDS011;1953;51.222;6.624;2023-05-23T16:56:25;8.70;;;3.80;;
3875;SDS011;1953;51.222;6.624;2023-05-23T17:01:08;9.37;;;3.93;;
3875;SDS011;1953;51.222;6.624;2023-05-23T17:05:50;10.30;;;4.00;;
3875;SDS011;1953;51.222;6.624;2023-05-23T17:10:33;8.47;;;3.93;;
3875;SDS011;1953;51.222;6.624;2023-05-23T17:15:18;13.60;;;4.00;;
3875;SDS011;1953;51.222;6.624;2023-05-23T17:20:01;16.83;;;3.70;;
3875;SDS011;1953;51.222;6.624;2023-05-23T17:24:44;10.37;;;4.20;;
3875;SDS011;1953;51.222;6.624;2023-05-23T17:29:26;8.93;;;4.20;;
3875;SDS011;1953;51.222;6.624;2023-05-23T17:34:10;9.20;;;3.50;;
3875;SDS011;1953;51.222;6.624;2023-05-23T17:38:52;7.27;;;3.70;;
3875;SDS011;1953;51.222;6.624;2023-05-23T17:43:35;9.77;;;4.30;;
3875;SDS011;1953;51.222;6.624;2023-05-23T17:48:18;12.20;;;4.70;;
3875;SDS011;1953;51.222;6.624;2023-05-23T17:53:02;16.53;;;5.30;;
3875;SDS011;1953;51.222;6.624;2023-05-23T17:57:45;9.70;;;4.33;;
3875;SDS011;1953;51.222;6.624;2023-05-23T18:02:27;8.60;;;4.23;;
3875;SDS011;1953;51.222;6.624;2023-05-23T18:07:10;10.77;;;4.83;;
3875;SDS011;1953;51.222;6.624;2023-05-23T18:11:54;8.73;;;4.33;;
3875;SDS011;1953;51.222;6.624;2023-05-23T18:16:37;11.13;;;4.50;;
3875;SDS011;1953;51.222;6.624;2023-05-23T18:21:19;15.63;;;5.03;;
3875;SDS011;1953;51.222;6.624;2023-05-23T18:26:02;16.83;;;4.77;;
3875;SDS011;1953;51.222;6.624;2023-05-23T18:30:46;6.70;;;4.13;;
3875;SDS011;1953;51.222;6.624;2023-05-23T18:35:29;12.17;;;5.17;;
3875;SDS011;1953;51.222;6.624;2023-05-23T18:40:12;8.90;;;4.83;;
3875;SDS011;1953;51.222;6.624;2023-05-23T18:44:54;10.73;;;4.10;;
3875;SDS011;1953;51.222;6.624;2023-05-23T18:49:38;9.03;;;4.63;;
3875;SDS011;1953;51.222;6.624;2023-05-23T18:54:21;15.60;;;5.80;;
3875;SDS011;1953;51.222;6.624;2023-05-23T18:59:03;13.37;;;4.83;;
3875;SDS011;1953;51.222;6.624;2023-05-23T19:03:46;11.90;;;4.40;;
3875;SDS011;1953;51.222;6.624;2023-05-23T19:08:30;11.77;;;4.20;;
3875;SDS011;1953;51.222;6.624;2023-05-23T19:13:13;11.07;;;4.17;;
3875;SDS011;1953;51.222;6.624;2023-05-23T19:17:55;10.77;;;4.60;;
3875;SDS011;1953;51.222;6.624;2023-05-23T19:22:38;12.60;;;4.40;;
3875;SDS011;1953;51.222;6.624;2023-05-23T19:27:22;14.60;;;4.50;;
3875;SDS011;1953;51.222;6.624;2023-05-23T19:32:04;10.00;;;4.53;;
3875;SDS011;1953;51.222;6.624;2023-05-23T19:36:47;18.77;;;4.83;;
3875;SDS011;1953;51.222;6.624;2023-05-23T19:41:29;15.23;;;4.70;;
3875;SDS011;1953;51.222;6.624;2023-05-23T19:46:13;13.50;;;4.50;;
3875;SDS011;1953;51.222;6.624;2023-05-23T19:50:56;12.07;;;5.23;;
3875;SDS011;1953;51.222;6.624;2023-05-23T19:55:38;14.77;;;4.60;;
3875;SDS011;1953;51.222;6.624;2023-05-23T20:00:22;14.97;;;4.73;;
3875;SDS011;1953;51.222;6.624;2023-05-23T20:05:07;13.47;;;4.63;;
3875;SDS011;1953;51.222;6.624;2023-05-23T20:09:50;11.90;;;4.33;;
3875;SDS011;1953;51.222;6.624;2023-05-23T20:14:32;11.47;;;4.80;;
3875;SDS011;1953;51.222;6.624;2023-05-23T20:19:15;14.60;;;5.20;;
3875;SDS011;1953;51.222;6.624;2023-05-23T20:23:59;11.43;;;5.17;;
3875;SDS011;1953;51.222;6.624;2023-05-23T20:28:41;18.70;;;4.60;;
3875;SDS011;1953;51.222;6.624;2023-05-23T20:33:24;18.50;;;4.40;;
3875;SDS011;1953;51.222;6.624;2023-05-23T20:38:06;17.40;;;4.50;;
3875;SDS011;1953;51.222;6.624;2023-05-23T20:42:51;10.40;;;4.70;;
3875;SDS011;1953;51.222;6.624;2023-05-23T20:47:33;12.20;;;4.43;;
3875;SDS011;1953;51.222;6.624;2023-05-23T20:52:16;16.93;;;4.20;;
3875;SDS011;1953;51.222;6.624;2023-05-23T20:56:59;17.93;;;4.93;;
3875;SDS011;1953;51.222;6.624;2023-05-23T21:01:43;16.23;;;4.53;;
3875;SDS011;1953;51.222;6.624;2023-05-23T21:06:26;13.20;;;4.10;;
3875;SDS011;1953;51.222;6.624;2023-05-23T21:11:08;13.50;;;5.00;;
3875;SDS011;1953;51.222;6.624;2023-05-23T21:15:51;8.63;;;4.10;;
3875;SDS011;1953;51.222;6.624;2023-05-23T21:20:34;14.60;;;4.60;;
3875;SDS011;1953;51.222;6.624;2023-05-23T21:25:17;14.87;;;4.40;;
3875;SDS011;1953;51.222;6.624;2023-05-23T21:30:00;14.87;;;4.17;;
3875;SDS011;1953;51.222;6.624;2023-05-23T21:34:42;12.70;;;4.70;;
3875;SDS011;1953;51.222;6.624;2023-05-23T21:39:26;14.77;;;4.47;;
3875;SDS011;1953;51.222;6.624;2023-05-23T21:44:09;15.87;;;4.77;;
3875;SDS011;1953;51.222;6.624;2023-05-23T21:48:53;9.30;;;3.43;;
3875;SDS011;1953;51.222;6.624;2023-05-23T21:53:35;12.10;;;4.10;;
3875;SDS011;1953;51.222;6.624;2023-05-23T21:58:19;11.80;;;3.13;;
3875;SDS011;1953;51.222;6.624;2023-05-23T22:03:02;14.70;;;3.50;;
3875;SDS011;1953;51.222;6.624;2023-05-23T22:07:44;9.93;;;3.53;;
3875;SDS011;1953;51.222;6.624;2023-05-23T22:12:27;20.57;;;3.87;;
3875;SDS011;1953;51.222;6.624;2023-05-23T22:17:11;14.77;;;3.90;;
3875;SDS011;1953;51.222;6.624;2023-05-23T22:21:54;12.57;;;3.73;;
3875;SDS011;1953;51.222;6.624;2023-05-23T22:26:36;11.03;;;4.10;;
3875;SDS011;1953;51.222;6.624;2023-05-23T22:31:19;8.00;;;3.07;;
3875;SDS011;1953;51.222;6.624;2023-05-23T22:36:05;14.60;;;4.07;;
3875;SDS011;1953;51.222;6.624;2023-05-23T22:40:49;15.63;;;4.73;;
3875;SDS011;1953;51.222;6.624;2023-05-23T22:45:31;18.03;;;4.07;;
3875;SDS011;1953;51.222;6.624;2023-05-23T22:50:20;12.03;;;4.17;;
3875;SDS011;1953;51.222;6.624;2023-05-23T22:55:05;21.37;;;3.70;;
3875;SDS011;1953;51.222;6.624;2023-05-23T22:59:48;13.03;;;4.30;;
3875;SDS011;1953;51.222;6.624;2023-05-23T23:04:30;14.60;;;4.40;;
3875;SDS011;1953;51.222;6.624;2023-05-23T23:09:13;10.47;;;3.90;;
3875;SDS011;1953;51.222;6.624;2023-05-23T23:13:57;9.43;;;4.20;;
3875;SDS011;1953;51.222;6.624;2023-05-23T23:18:40;12.53;;;3.90;;
3875;SDS011;1953;51.222;6.624;2023-05-23T23:23:23;11.93;;;3.90;;
3875;SDS011;1953;51.222;6.624;2023-05-23T23:28:05;15.00;;;4.40;;
3875;SDS011;1953;51.222;6.624;2023-05-23T23:32:49;17.13;;;4.50;;
3875;SDS011;1953;51.222;6.624;2023-05-23T23:37:32;14.60;;;4.13;;
3875;SDS011;1953;51.222;6.624;2023-05-23T23:42:14;19.33;;;4.60;;
3875;SDS011;1953;51.222;6.624;2023-05-23T23:46:57;16.53;;;3.97;;
3875;SDS011;1953;51.222;6.624;2023-05-23T23:51:41;13.93;;;4.13;;
3875;SDS011;1953;51.222;6.624;2023-05-23T23:56:23;11.80;;;4.37;;
